Time;durP1;ratioP1;P1;durP2;ratioP2;P2;SDS_P1;SDS_P2;PMS_P1;PMS_P2;Temp;Humidity;BMP_temperature;BMP_pressure;BME280_temperature;BME280_humidity;BME280_pressure;Samples;Min_cycle;Max_cycle;Signal;HPM_P1;HPM_P2
2022/02/11 00:07:36;;;;;;;7.37;2.37;;;4.40;99.90;;;;;;5053886;28;20223;-70
2022/02/11 00:10:04;;;;;;;5.87;3.00;;;4.30;99.90;;;;;;5053307;28;20200;-75
2022/02/11 00:12:31;;;;;;;5.17;3.00;;;4.30;99.90;;;;;;5053647;28;20200;-71
2022/02/11 00:15:07;;;;;;;11.07;2.87;;;4.30;99.90;;;;;;5053815;28;20226;-65
2022/02/11 00:17:34;;;;;;;7.83;2.47;;;4.40;99.90;;;;;;5053693;28;20228;-67
2022/02/11 00:20:01;;;;;;;6.20;2.63;;;4.30;99.90;;;;;;5053291;28;20204;-77
2022/02/11 00:22:28;;;;;;;4.83;2.53;;;4.20;99.90;;;;;;5054126;28;20227;-75
2022/02/11 00:24:55;;;;;;;7.97;2.53;;;4.30;99.90;;;;;;5053706;28;20212;-66
2022/02/11 00:28:05;;;;;;;5.00;2.50;;;4.30;99.90;;;;;;5053513;28;20655;-73
2022/02/11 00:33:24;;;;;;;7.23;2.57;;;4.20;99.90;;;;;;5053348;28;20682;-77
2022/02/11 00:35:55;;;;;;;3.47;1.93;;;4.20;99.90;;;;;;5053980;28;20208;-67
2022/02/11 00:38:29;;;;;;;3.10;2.07;;;4.30;99.90;;;;;;5053952;28;20224;-77
2022/02/11 00:41:46;;;;;;;6.37;2.60;;;4.30;99.90;;;;;;5053673;28;20254;-77
2022/02/11 01:03:24;;;;;;;9.00;2.73;;;3.80;99.90;;;;;;5053358;28;20234;-77
2022/02/11 01:05:51;;;;;;;6.07;2.30;;;3.80;99.90;;;;;;5053495;28;20273;-75
2022/02/11 01:08:17;;;;;;;7.03;2.60;;;3.80;99.90;;;;;;5053501;28;20224;-77
2022/02/11 01:10:45;;;;;;;4.83;2.00;;;3.80;99.90;;;;;;5053484;28;20559;-76
2022/02/11 01:13:12;;;;;;;3.70;2.00;;;3.70;99.90;;;;;;5053735;28;20204;-76
2022/02/11 01:15:44;;;;;;;7.80;2.50;;;3.70;99.90;;;;;;5053275;28;20200;-77
2022/02/11 01:18:12;;;;;;;5.93;1.90;;;3.80;99.90;;;;;;5052902;28;20223;-79
2022/02/11 01:20:47;;;;;;;4.67;2.00;;;3.80;99.90;;;;;;5053389;28;20204;-77
2022/02/11 01:23:23;;;;;;;6.80;2.20;;;3.90;99.90;;;;;;5052984;28;20231;-76
2022/02/11 01:26:05;;;;;;;4.83;2.30;;;3.80;99.90;;;;;;5052925;28;20208;-76
2022/02/11 01:28:45;;;;;;;3.90;2.00;;;3.70;99.90;;;;;;5053241;28;20230;-77
2022/02/11 01:31:20;;;;;;;6.23;2.00;;;3.70;99.90;;;;;;5053223;28;20208;-76
2022/02/11 01:36:46;;;;;;;7.30;2.50;;;3.70;99.90;;;;;;5052411;28;20200;-77
2022/02/11 01:40:01;;;;;;;7.40;2.40;;;3.60;99.90;;;;;;5052768;28;20253;-76
2022/02/11 01:45:28;;;;;;;3.90;2.10;;;3.70;99.90;;;;;;5053135;28;20210;-77
2022/02/11 01:48:34;;;;;;;7.70;2.33;;;3.70;99.90;;;;;;5053047;28;20224;-72
2022/02/11 01:51:14;;;;;;;11.23;1.80;;;3.70;99.90;;;;;;5053191;28;20203;-77
2022/02/11 01:53:48;;;;;;;8.70;1.93;;;3.70;99.90;;;;;;5052814;28;20204;-77
2022/02/11 01:56:32;;;;;;;3.50;1.67;;;3.60;99.90;;;;;;5052808;28;20200;-72
2022/02/11 02:24:01;;;;;;;4.30;1.57;;;4.50;99.90;;;;;;5052597;28;20717;-66
2022/02/11 02:26:46;;;;;;;1.63;1.30;;;4.60;99.90;;;;;;5052645;28;20234;-69
2022/02/11 02:30:08;;;;;;;4.10;1.80;;;4.60;99.90;;;;;;5052284;28;20224;-66
2022/02/11 02:38:31;;;;;;;5.93;1.00;;;4.50;99.90;;;;;;5050360;28;20227;-77
2022/02/11 02:57:37;;;;;;;7.93;1.07;;;4.40;99.90;;;;;;5055842;28;20283;-73
2022/02/11 03:00:20;;;;;;;3.00;1.13;;;4.50;99.90;;;;;;5056158;28;20210;-76
2022/02/11 03:50:03;;;;;;;3.77;1.00;;;4.50;99.90;;;;;;5055212;28;20208;-70
2022/02/11 03:53:26;;;;;;;3.40;1.30;;;4.50;99.90;;;;;;5055165;28;20274;-73
2022/02/11 03:56:06;;;;;;;2.40;0.80;;;4.50;99.90;;;;;;5054554;28;20196;-77
2022/02/11 04:21:12;;;;;;;4.80;1.53;;;5.00;99.90;;;;;;5054604;28;20612;-77
2022/02/11 04:56:51;;;;;;;1.37;0.87;;;4.80;99.90;;;;;;5074031;28;20820;-77
2022/02/11 04:59:37;;;;;;;2.27;1.10;;;4.70;99.90;;;;;;5073685;28;20230;-77
2022/02/11 05:02:06;;;;;;;5.87;1.00;;;4.70;99.90;;;;;;5066937;28;20236;-77
2022/02/11 05:04:33;;;;;;;7.63;1.80;;;4.80;99.90;;;;;;5053781;28;20598;-77
2022/02/11 05:07:00;;;;;;;6.63;1.93;;;4.90;99.90;;;;;;5053704;28;20204;-77
2022/02/11 05:09:28;;;;;;;7.50;1.20;;;5.10;99.90;;;;;;5053358;28;20623;-77
2022/02/11 05:11:56;;;;;;;5.50;1.37;;;5.20;99.90;;;;;;5053015;28;20226;-77
2022/02/11 05:14:23;;;;;;;9.63;1.07;;;5.30;99.90;;;;;;5053234;28;20667;-76
2022/02/11 05:16:50;;;;;;;7.07;1.53;;;5.40;99.90;;;;;;5053837;28;20215;-75
2022/02/11 05:19:17;;;;;;;6.43;1.57;;;5.30;99.90;;;;;;5053359;28;20231;-77
2022/02/11 05:21:44;;;;;;;7.20;1.00;;;5.30;99.90;;;;;;5072658;28;20199;-77
2022/02/11 05:24:10;;;;;;;3.40;0.90;;;5.20;99.90;;;;;;5073375;28;20231;-77
2022/02/11 05:26:37;;;;;;;5.50;1.27;;;5.10;99.90;;;;;;5061227;28;20210;-77
2022/02/11 05:29:05;;;;;;;7.30;1.50;;;5.00;99.90;;;;;;5053395;28;20587;-77
2022/02/11 05:31:32;;;;;;;7.97;1.23;;;5.00;99.90;;;;;;5053374;28;20203;-77
2022/02/11 05:33:59;;;;;;;5.23;1.17;;;5.00;99.90;;;;;;5053022;28;20635;-77
2022/02/11 05:36:26;;;;;;;4.97;1.13;;;5.00;99.90;;;;;;5053085;28;20204;-77
2022/02/11 05:38:53;;;;;;;9.03;1.27;;;4.90;99.90;;;;;;5052839;28;20227;-75
2022/02/11 05:41:21;;;;;;;1.97;1.00;;;4.90;99.90;;;;;;5053395;28;20208;-77
2022/02/11 05:43:47;;;;;;;6.87;1.20;;;4.80;99.90;;;;;;5052812;28;20629;-68
2022/02/11 05:46:16;;;;;;;4.37;1.30;;;4.90;99.90;;;;;;5062188;28;20191;-69
2022/02/11 05:48:43;;;;;;;5.60;1.20;;;4.90;99.90;;;;;;5072560;28;20223;-70
2022/02/11 05:51:10;;;;;;;3.57;0.83;;;4.90;99.90;;;;;;5072456;28;20662;-66
2022/02/11 05:53:37;;;;;;;5.03;0.80;;;4.90;99.90;;;;;;5072556;28;20213;-76
2022/02/11 05:56:05;;;;;;;9.90;1.00;;;4.90;99.90;;;;;;5072639;28;20214;-74
2022/02/11 05:58:32;;;;;;;5.70;1.47;;;4.90;99.90;;;;;;5063769;28;20220;-74
2022/02/11 06:00:59;;;;;;;5.23;1.20;;;4.80;99.90;;;;;;5059844;28;20210;-68
2022/02/11 06:03:30;;;;;;;5.10;1.23;;;4.90;99.90;;;;;;5070545;28;21015;-67
2022/02/11 06:05:57;;;;;;;5.23;1.13;;;5.10;99.90;;;;;;5072013;28;20557;-68
2022/02/11 06:08:24;;;;;;;7.73;1.33;;;5.10;99.90;;;;;;5072150;28;20219;-71
2022/02/11 06:10:51;;;;;;;3.07;0.97;;;5.20;99.90;;;;;;5072814;28;20203;-75
2022/02/11 06:13:17;;;;;;;5.40;1.50;;;5.30;99.90;;;;;;5072143;28;20210;-69
2022/02/11 06:15:45;;;;;;;5.40;1.10;;;5.40;99.90;;;;;;5064641;28;20200;-72
2022/02/11 06:18:12;;;;;;;6.17;0.90;;;5.40;99.90;;;;;;5054052;28;20234;-75
2022/02/11 06:20:41;;;;;;;8.23;1.20;;;5.50;99.90;;;;;;5071435;28;20210;-74
2022/02/11 06:23:08;;;;;;;2.70;1.07;;;5.50;99.90;;;;;;5071554;28;20210;-74
2022/02/11 06:25:35;;;;;;;7.13;0.90;;;5.40;99.90;;;;;;5063562;28;20227;-73
2022/02/11 06:28:02;;;;;;;7.77;0.90;;;5.40;99.90;;;;;;5055581;28;20234;-71
2022/02/11 06:30:29;;;;;;;1.87;0.60;;;5.30;99.90;;;;;;5056121;28;20544;-73
2022/02/11 06:32:55;;;;;;;2.87;1.07;;;5.30;99.90;;;;;;5055610;28;20204;-74
2022/02/11 06:35:22;;;;;;;4.83;1.00;;;5.30;99.90;;;;;;5066314;28;20214;-76
2022/02/11 06:37:50;;;;;;;6.67;0.90;;;5.40;99.90;;;;;;5075389;28;20301;-72
2022/02/11 06:40:18;;;;;;;4.07;0.87;;;5.50;99.90;;;;;;5075091;28;20191;-74
2022/02/11 06:42:45;;;;;;;9.83;1.20;;;5.60;99.90;;;;;;5075266;28;20199;-68
2022/02/11 06:45:12;;;;;;;3.87;1.17;;;5.70;99.90;;;;;;5074402;28;20226;-73
2022/02/11 06:47:38;;;;;;;2.03;0.80;;;5.70;99.90;;;;;;5075606;28;20243;-71
2022/02/11 06:50:06;;;;;;;3.83;1.00;;;5.80;99.90;;;;;;5075581;28;20191;-71
2022/02/11 06:52:33;;;;;;;4.73;1.10;;;5.80;99.90;;;;;;5075088;28;20234;-74
2022/02/11 06:55:01;;;;;;;3.17;0.90;;;5.70;99.90;;;;;;5075174;28;20196;-75
2022/02/11 06:57:28;;;;;;;7.00;1.40;;;5.70;99.90;;;;;;5074430;28;20203;-67
2022/02/11 06:59:55;;;;;;;2.97;0.90;;;5.60;99.90;;;;;;5055416;28;20204;-66
2022/02/11 07:02:22;;;;;;;5.30;1.10;;;5.60;99.90;;;;;;5054900;28;20212;-66
2022/02/11 07:04:49;;;;;;;6.03;1.00;;;5.50;99.90;;;;;;5055846;28;20224;-75
2022/02/11 07:07:15;;;;;;;1.83;1.00;;;5.60;99.90;;;;;;5055839;28;20208;-68
2022/02/11 07:09:42;;;;;;;2.97;1.10;;;5.80;99.90;;;;;;5073453;28;20206;-75
2022/02/11 07:12:11;;;;;;;4.90;1.07;;;5.60;99.90;;;;;;5074567;28;20210;-66
2022/02/11 07:14:38;;;;;;;9.87;1.10;;;5.50;99.90;;;;;;5073637;28;20206;-69
2022/02/11 07:17:05;;;;;;;3.53;1.37;;;5.50;99.90;;;;;;5074150;28;20203;-66
2022/02/11 07:19:35;;;;;;;7.07;1.03;;;5.40;99.90;;;;;;5075475;28;20227;-68
2022/02/11 07:22:02;;;;;;;10.70;1.40;;;5.30;99.90;;;;;;5074606;28;20654;-71
2022/02/11 07:24:29;;;;;;;4.83;1.00;;;5.10;99.90;;;;;;5075096;28;20231;-72
2022/02/11 07:26:56;;;;;;;3.57;0.90;;;5.20;99.90;;;;;;5075321;28;20233;-76
2022/02/11 07:29:25;;;;;;;6.83;1.20;;;5.20;99.90;;;;;;5075010;28;20231;-76
2022/02/11 07:31:52;;;;;;;10.07;2.13;;;5.30;99.90;;;;;;5075610;28;20209;-76
2022/02/11 07:34:18;;;;;;;7.03;1.30;;;5.40;99.90;;;;;;5074834;28;20234;-75
2022/02/11 07:36:45;;;;;;;4.80;1.40;;;5.50;99.90;;;;;;5074951;28;20215;-77
2022/02/11 07:39:12;;;;;;;5.43;1.30;;;5.50;99.90;;;;;;5075067;28;20231;-69
2022/02/11 07:41:39;;;;;;;2.93;0.80;;;5.60;99.90;;;;;;5074949;28;20210;-76
2022/02/11 07:44:06;;;;;;;4.27;1.47;;;5.80;99.90;;;;;;5075102;28;20223;-67
2022/02/11 07:46:35;;;;;;;3.17;1.43;;;6.10;99.90;;;;;;5075132;28;20219;-76
2022/02/11 07:49:02;;;;;;;4.07;1.30;;;6.50;99.90;;;;;;5074785;28;20289;-75
2022/02/11 07:51:29;;;;;;;3.37;1.30;;;6.60;99.90;;;;;;5065943;28;20202;-66
2022/02/11 07:53:56;;;;;;;1.83;0.60;;;6.90;99.90;;;;;;5060682;28;20200;-67
2022/02/11 07:56:23;;;;;;;4.23;0.80;;;7.20;99.90;;;;;;5054376;28;20211;-66
2022/02/11 07:58:51;;;;;;;6.10;1.10;;;7.30;99.90;;;;;;5056751;28;20219;-72
2022/02/11 08:01:19;;;;;;;8.83;1.20;;;7.50;99.90;;;;;;5074707;28;20239;-74
2022/02/11 08:03:49;;;;;;;4.17;0.80;;;7.50;99.90;;;;;;5074466;28;20700;-66
2022/02/11 08:06:15;;;;;;;8.67;1.20;;;7.50;99.90;;;;;;5074442;28;20278;-75
2022/02/11 08:08:42;;;;;;;5.30;0.90;;;7.30;99.90;;;;;;5074227;28;20732;-74
2022/02/11 08:11:09;;;;;;;6.80;0.90;;;7.30;99.90;;;;;;5070478;28;20196;-75
2022/02/11 08:13:36;;;;;;;2.40;0.70;;;7.30;99.90;;;;;;5059193;28;20554;-75
2022/02/11 08:16:04;;;;;;;8.50;1.27;;;7.60;99.90;;;;;;5073267;28;20245;-75
2022/02/11 08:18:31;;;;;;;5.50;1.17;;;7.80;99.90;;;;;;5074098;28;20219;-72
2022/02/11 08:21:00;;;;;;;9.70;1.10;;;8.10;99.90;;;;;;5074201;28;20208;-75
2022/02/11 08:23:27;;;;;;;2.30;0.80;;;8.20;99.90;;;;;;5073972;28;20203;-71
2022/02/11 08:25:54;;;;;;;4.40;0.83;;;8.50;99.90;;;;;;5073940;28;20237;-75
2022/02/11 08:28:20;;;;;;;4.63;1.23;;;8.70;99.90;;;;;;5073687;28;20223;-65
2022/02/11 08:30:49;;;;;;;4.30;0.70;;;8.80;99.90;;;;;;5073843;28;20204;-75
2022/02/11 08:33:17;;;;;;;3.93;0.90;;;8.80;99.90;;;;;;5073150;28;20213;-74
2022/02/11 08:35:45;;;;;;;3.80;0.87;;;8.80;99.90;;;;;;5070446;28;20210;-66
2022/02/11 08:38:13;;;;;;;3.93;0.70;;;8.60;99.90;;;;;;5072927;28;20215;-75
2022/02/11 08:40:40;;;;;;;5.20;0.83;;;8.70;99.90;;;;;;5073696;28;20213;-67
2022/02/11 08:43:06;;;;;;;2.33;0.80;;;8.80;99.90;;;;;;5073863;28;20203;-73
2022/02/11 08:45:37;;;;;;;7.37;0.80;;;8.70;99.90;;;;;;5073703;28;20231;-69
2022/02/11 08:48:04;;;;;;;3.23;0.90;;;8.40;99.90;;;;;;5064899;28;20266;-72
2022/02/11 08:50:32;;;;;;;6.43;1.10;;;8.00;99.90;;;;;;5053303;28;20204;-72
2022/02/11 08:52:58;;;;;;;3.97;0.80;;;8.10;99.90;;;;;;5053167;28;20211;-72
2022/02/11 08:55:26;;;;;;;6.93;0.90;;;8.00;99.90;;;;;;5068916;28;20223;-73
2022/02/11 08:57:53;;;;;;;6.83;1.20;;;8.00;99.90;;;;;;5073504;28;20234;-66
2022/02/11 09:00:21;;;;;;;8.23;1.37;;;8.20;99.90;;;;;;5072980;28;20214;-73
2022/02/11 09:02:47;;;;;;;4.20;0.90;;;8.20;99.90;;;;;;5072969;28;20222;-65
2022/02/11 09:05:14;;;;;;;5.20;0.73;;;8.30;99.90;;;;;;5072722;28;20220;-73
2022/02/11 09:07:41;;;;;;;9.20;1.00;;;8.40;99.90;;;;;;5072188;28;20233;-71
2022/02/11 09:10:09;;;;;;;5.07;1.00;;;8.20;99.90;;;;;;5072277;28;20561;-74
2022/02/11 09:12:37;;;;;;;7.43;1.03;;;8.00;99.90;;;;;;5072711;28;20231;-69
2022/02/11 09:15:05;;;;;;;7.93;0.93;;;7.90;99.90;;;;;;5072823;28;20582;-74
2022/02/11 09:17:32;;;;;;;7.77;1.30;;;8.00;99.90;;;;;;5072526;28;20714;-75
2022/02/11 09:19:59;;;;;;;2.07;0.90;;;7.90;99.90;;;;;;5072766;28;20206;-72
2022/02/11 09:22:25;;;;;;;9.63;1.10;;;7.80;99.90;;;;;;5072052;28;20207;-75
2022/02/11 09:24:54;;;;;;;6.93;1.40;;;7.70;99.90;;;;;;5071603;28;20233;-75
2022/02/11 09:27:21;;;;;;;5.93;0.80;;;7.60;99.90;;;;;;5071551;28;20290;-73
2022/02/11 09:29:49;;;;;;;5.30;0.90;;;7.50;99.90;;;;;;5071928;28;20203;-74
2022/02/11 09:32:16;;;;;;;1.77;0.83;;;7.40;99.90;;;;;;5056188;28;20206;-73
2022/02/11 09:34:43;;;;;;;6.23;1.40;;;7.50;99.90;;;;;;5052377;28;20204;-70
2022/02/11 09:37:10;;;;;;;4.93;1.33;;;7.50;99.90;;;;;;5052322;28;20204;-71
2022/02/11 09:39:37;;;;;;;2.93;0.90;;;7.60;99.90;;;;;;5059412;28;20551;-72
2022/02/11 09:42:04;;;;;;;2.93;0.90;;;7.60;99.90;;;;;;5057726;28;20201;-74
2022/02/11 09:44:32;;;;;;;9.30;1.33;;;7.50;99.90;;;;;;5056249;28;20204;-72
2022/02/11 09:47:01;;;;;;;6.50;1.27;;;7.60;99.90;;;;;;5071808;28;20227;-70
2022/02/11 09:49:27;;;;;;;7.47;1.73;;;7.70;99.90;;;;;;5053620;28;20230;-72
2022/02/11 09:51:54;;;;;;;3.50;1.20;;;7.90;99.90;;;;;;5056649;28;20686;-66
2022/02/11 09:54:22;;;;;;;2.93;1.03;;;8.00;99.90;;;;;;5072030;28;20203;-72
2022/02/11 09:56:50;;;;;;;2.10;0.73;;;7.90;99.90;;;;;;5071647;28;20202;-71
2022/02/11 09:59:20;;;;;;;11.83;1.40;;;7.80;99.90;;;;;;5071093;28;20223;-72
2022/02/11 10:01:47;;;;;;;7.30;0.90;;;7.90;99.90;;;;;;5059734;28;20204;-72
2022/02/11 10:04:16;;;;;;;4.73;1.07;;;7.90;99.90;;;;;;5057997;28;20199;-73
2022/02/11 10:06:46;;;;;;;5.10;1.00;;;8.10;99.90;;;;;;5071993;28;20235;-72
2022/02/11 10:09:14;;;;;;;7.47;1.30;;;8.20;99.90;;;;;;5071913;28;20223;-72
2022/02/11 10:11:40;;;;;;;9.67;1.77;;;8.20;99.90;;;;;;5062510;28;20208;-73
2022/02/11 10:14:23;;;;;;;5.63;2.00;;;8.10;99.90;;;;;;5068929;28;20198;-69
2022/02/11 10:16:59;;;;;;;8.37;0.90;;;8.10;99.90;;;;;;5076379;28;20293;-71
2022/02/11 10:19:56;;;;;;;4.47;1.17;;;8.20;99.90;;;;;;5065396;28;20235;-70
2022/02/11 10:22:25;;;;;;;2.13;0.60;;;8.10;99.90;;;;;;5037304;28;20215;-70
2022/02/11 10:24:53;;;;;;;9.13;1.27;;;7.90;99.90;;;;;;5058464;28;20206;-68
2022/02/11 10:27:22;;;;;;;3.97;0.80;;;7.90;99.90;;;;;;5070575;28;20661;-68
2022/02/11 10:29:51;;;;;;;4.50;1.13;;;8.10;99.90;;;;;;5070423;28;20207;-65
2022/02/11 10:32:18;;;;;;;7.30;1.17;;;8.00;99.90;;;;;;5054040;28;20208;-70
2022/02/11 10:34:51;;;;;;;7.43;0.90;;;8.10;99.90;;;;;;5057522;28;20203;-67
2022/02/11 10:37:20;;;;;;;2.93;1.03;;;8.20;99.90;;;;;;5069648;28;20211;-69
2022/02/11 10:39:56;;;;;;;5.90;0.90;;;8.20;99.90;;;;;;5070666;28;20207;-68
2022/02/11 10:42:41;;;;;;;7.33;1.10;;;8.30;99.90;;;;;;5053393;28;20207;-66
2022/02/11 10:45:26;;;;;;;6.17;1.10;;;8.20;99.90;;;;;;5054386;28;20234;-68
2022/02/11 10:48:08;;;;;;;6.40;1.30;;;8.20;99.90;;;;;;5050665;28;20251;-71
2022/02/11 10:50:35;;;;;;;5.23;1.00;;;8.10;99.90;;;;;;5050770;28;20208;-67
2022/02/11 10:53:04;;;;;;;8.33;2.07;;;7.90;99.90;;;;;;5049968;28;20204;-67
2022/02/11 10:55:30;;;;;;;5.67;1.00;;;7.80;99.90;;;;;;5063056;28;20294;-68
2022/02/11 10:57:59;;;;;;;6.17;1.40;;;7.80;99.90;;;;;;5069547;28;20238;-67
2022/02/11 11:00:26;;;;;;;5.87;1.40;;;8.20;99.90;;;;;;5068760;28;20207;-69
2022/02/11 11:02:53;;;;;;;4.03;1.30;;;8.50;99.90;;;;;;5065689;28;20547;-68
2022/02/11 11:05:20;;;;;;;7.47;1.30;;;8.70;99.90;;;;;;5070204;28;20235;-68
2022/02/11 11:07:47;;;;;;;4.47;0.83;;;8.70;99.90;;;;;;5069321;28;20609;-68
2022/02/11 11:10:16;;;;;;;2.60;0.93;;;8.70;99.90;;;;;;5071832;28;20297;-69
2022/02/11 11:12:47;;;;;;;3.93;0.77;;;8.80;99.90;;;;;;5057477;28;20643;-67
2022/02/11 11:15:16;;;;;;;2.97;0.87;;;8.80;99.90;;;;;;5072592;28;20226;-68
2022/02/11 11:17:44;;;;;;;5.30;1.20;;;8.70;99.90;;;;;;5074377;28;20284;-69
2022/02/11 11:20:12;;;;;;;8.20;1.30;;;8.90;99.90;;;;;;5073918;28;20211;-68
2022/02/11 11:22:44;;;;;;;7.83;1.00;;;8.70;99.90;;;;;;5064032;28;20199;-70
2022/02/11 11:25:11;;;;;;;5.60;1.17;;;8.80;99.90;;;;;;5075346;28;20203;-69
2022/02/11 11:27:45;;;;;;;6.23;1.07;;;8.90;99.90;;;;;;5075283;28;20227;-67
2022/02/11 11:30:37;;;;;;;2.47;0.83;;;9.20;99.90;;;;;;5075227;28;20281;-72
2022/02/11 11:33:26;;;;;;;5.57;0.90;;;9.20;99.90;;;;;;5050970;28;20544;-72
2022/02/11 11:36:08;;;;;;;7.27;1.10;;;9.00;99.90;;;;;;5055648;28;20265;-72
2022/02/11 11:38:41;;;;;;;9.43;1.10;;;8.80;99.90;;;;;;5055338;28;20228;-69
2022/02/11 11:41:12;;;;;;;3.00;0.70;;;8.70;99.90;;;;;;5055060;28;20204;-68
2022/02/11 11:43:43;;;;;;;5.83;0.50;;;8.20;99.90;;;;;;5055142;28;20200;-68
2022/02/11 11:46:29;;;;;;;3.50;0.50;;;7.90;99.90;;;;;;5055267;28;20267;-73
2022/02/11 11:48:59;;;;;;;7.67;1.10;;;7.80;99.90;;;;;;5053377;28;20230;-68
2022/02/11 11:51:27;;;;;;;5.47;1.10;;;7.60;99.90;;;;;;5053963;28;20210;-71
2022/02/11 11:54:21;;;;;;;6.23;1.30;;;7.40;99.90;;;;;;5054412;28;20654;-69
2022/02/11 11:56:49;;;;;;;5.93;0.77;;;7.30;99.90;;;;;;5054434;28;20294;-72
2022/02/11 11:59:19;;;;;;;8.97;1.00;;;7.10;99.90;;;;;;5054992;28;20235;-68
2022/02/11 12:01:54;;;;;;;4.47;1.30;;;7.00;99.90;;;;;;5054398;28;20594;-73
2022/02/11 12:04:23;;;;;;;3.90;0.97;;;6.90;99.90;;;;;;5054711;28;20200;-72
2022/02/11 12:06:52;;;;;;;7.30;1.10;;;6.90;99.90;;;;;;5054504;28;20270;-72
2022/02/11 12:09:19;;;;;;;1.97;0.60;;;7.00;99.90;;;;;;5054704;28;20220;-67
2022/02/11 12:11:47;;;;;;;5.10;1.30;;;7.10;99.90;;;;;;5054531;28;20204;-67
2022/02/11 12:14:15;;;;;;;1.50;0.63;;;7.30;99.90;;;;;;5054649;28;20214;-71
2022/02/11 12:16:43;;;;;;;5.77;0.97;;;7.40;99.90;;;;;;5065783;28;20202;-65
2022/02/11 12:19:10;;;;;;;5.20;0.83;;;7.70;99.90;;;;;;5074063;28;20581;-66
2022/02/11 12:21:37;;;;;;;3.60;1.13;;;8.00;99.90;;;;;;5063681;28;20238;-66
2022/02/11 12:29:34;;;;;;;2.93;0.70;;;8.30;99.90;;;;;;5053919;28;20280;-69
2022/02/11 12:32:04;;;;;;;3.47;0.60;;;8.50;99.90;;;;;;5054680;28;20204;-72
2022/02/11 12:34:30;;;;;;;7.03;0.87;;;8.40;99.90;;;;;;5054010;28;20204;-72
2022/02/11 12:37:07;;;;;;;5.83;1.33;;;8.20;99.90;;;;;;5054140;28;20251;-71
2022/02/11 12:39:34;;;;;;;3.87;0.97;;;8.00;99.90;;;;;;5053580;28;20230;-67
2022/02/11 12:42:01;;;;;;;3.77;0.70;;;7.70;99.90;;;;;;5053978;28;20204;-66
2022/02/11 12:44:29;;;;;;;10.50;1.03;;;7.50;99.90;;;;;;5053771;28;20218;-69
2022/02/11 12:46:59;;;;;;;3.80;1.20;;;7.30;99.90;;;;;;5053851;28;20694;-70
2022/02/11 12:49:28;;;;;;;5.57;0.80;;;7.40;99.90;;;;;;5053752;28;20219;-69
2022/02/11 12:51:57;;;;;;;3.40;0.60;;;7.50;99.90;;;;;;5053688;28;20215;-71
2022/02/11 12:54:24;;;;;;;5.20;0.90;;;7.50;99.90;;;;;;5054274;28;20204;-72
2022/02/11 12:57:07;;;;;;;4.63;0.73;;;7.50;99.90;;;;;;5054004;28;20208;-72
2022/02/11 12:59:34;;;;;;;3.93;0.63;;;7.40;99.90;;;;;;5053865;28;20670;-72
2022/02/11 13:02:01;;;;;;;3.07;0.50;;;7.20;99.90;;;;;;5053191;28;20658;-69
2022/02/11 13:04:29;;;;;;;3.60;0.57;;;7.20;99.90;;;;;;5053340;28;20670;-68
2022/02/11 13:06:57;;;;;;;5.70;0.50;;;7.10;99.90;;;;;;5053372;28;20238;-68
2022/02/11 13:09:24;;;;;;;4.33;0.63;;;7.10;99.90;;;;;;5053724;28;20231;-70
2022/02/11 13:11:56;;;;;;;3.80;0.60;;;7.10;99.90;;;;;;5052689;28;20204;-65
2022/02/11 13:14:23;;;;;;;2.57;0.70;;;7.10;99.90;;;;;;5053423;28;20200;-71
2022/02/11 13:16:50;;;;;;;6.33;0.70;;;7.10;99.90;;;;;;5065995;28;20282;-71
2022/02/11 13:19:20;;;;;;;3.80;0.50;;;7.10;99.90;;;;;;5073114;28;20702;-71
2022/02/11 13:21:48;;;;;;;1.80;0.53;;;7.20;99.90;;;;;;5061330;28;20204;-71
2022/02/11 13:24:15;;;;;;;3.20;0.93;;;7.20;99.90;;;;;;5053460;28;20211;-65
2022/02/11 13:26:42;;;;;;;1.67;0.50;;;7.10;99.90;;;;;;5053088;28;20738;-71
2022/02/11 13:29:13;;;;;;;4.73;0.73;;;7.10;99.90;;;;;;5052879;28;20224;-70
2022/02/11 13:31:47;;;;;;;4.90;0.97;;;7.30;99.90;;;;;;5052849;28;20204;-68
2022/02/11 13:34:14;;;;;;;2.73;0.87;;;7.40;99.90;;;;;;5052799;28;20204;-71
2022/02/11 13:36:48;;;;;;;5.37;0.70;;;7.40;99.90;;;;;;5052889;28;20210;-69
2022/02/11 13:39:28;;;;;;;9.33;1.10;;;7.50;99.90;;;;;;5052698;28;20297;-68
2022/02/11 13:41:55;;;;;;;2.30;0.40;;;7.70;99.90;;;;;;5052506;28;20265;-71
2022/02/11 13:44:22;;;;;;;6.43;0.60;;;7.70;99.90;;;;;;5052854;28;20211;-71
2022/02/11 13:46:53;;;;;;;5.80;0.90;;;7.80;99.90;;;;;;5052751;28;20240;-66
2022/02/11 13:49:21;;;;;;;2.37;0.60;;;7.80;99.90;;;;;;5052475;28;20228;-66
2022/02/11 13:54:56;;;;;;;4.33;0.77;;;7.90;99.90;;;;;;5052845;28;20203;-70
2022/02/11 13:57:23;;;;;;;3.87;0.70;;;8.00;99.90;;;;;;5052848;28;20261;-66
2022/02/11 13:59:50;;;;;;;2.93;0.67;;;8.20;99.90;;;;;;5052292;28;20204;-70
2022/02/11 14:02:20;;;;;;;3.53;0.87;;;8.30;99.90;;;;;;5052269;28;20255;-71
2022/02/11 14:04:47;;;;;;;4.07;0.73;;;8.30;99.90;;;;;;5052975;28;20238;-71
2022/02/11 14:07:15;;;;;;;10.80;0.80;;;8.20;99.90;;;;;;5052148;28;20228;-68
2022/02/11 14:09:44;;;;;;;3.27;0.40;;;8.40;99.90;;;;;;5052398;28;20678;-72
2022/02/11 14:12:31;;;;;;;7.70;0.70;;;8.60;99.90;;;;;;5052246;28;20212;-71
2022/02/11 14:14:59;;;;;;;1.20;0.50;;;8.80;99.90;;;;;;5059039;28;20211;-66
2022/02/11 14:17:29;;;;;;;2.37;0.60;;;9.00;99.90;;;;;;5070337;28;20199;-66
2022/02/11 14:19:55;;;;;;;8.67;0.80;;;9.00;99.90;;;;;;5071336;28;20230;-67
2022/02/11 14:22:23;;;;;;;5.13;0.97;;;9.10;99.90;;;;;;5053728;28;20200;-68
2022/02/11 14:24:51;;;;;;;3.90;0.60;;;9.10;99.90;;;;;;5060289;28;20682;-69
2022/02/11 14:27:18;;;;;;;5.33;0.90;;;8.90;99.90;;;;;;5070968;28;20257;-68
2022/02/11 14:29:45;;;;;;;3.30;0.67;;;8.70;99.90;;;;;;5070624;28;20203;-70
2022/02/11 14:32:12;;;;;;;2.00;0.70;;;8.40;99.90;;;;;;5055912;28;20211;-69
2022/02/11 14:34:41;;;;;;;1.20;0.57;;;8.10;99.90;;;;;;5058961;28;20341;-67
2022/02/11 14:37:08;;;;;;;5.57;1.00;;;7.90;99.90;;;;;;5070813;28;20207;-68
2022/02/11 14:39:35;;;;;;;7.60;0.83;;;7.90;99.90;;;;;;5070167;28;20231;-65
2022/02/11 14:42:05;;;;;;;4.03;0.87;;;7.80;99.90;;;;;;5056756;28;20209;-65
2022/02/11 14:44:33;;;;;;;3.07;0.60;;;8.00;99.90;;;;;;5057484;28;20647;-77
2022/02/11 14:47:02;;;;;;;3.50;0.43;;;8.20;99.90;;;;;;5074689;28;20233;-71
2022/02/11 14:49:29;;;;;;;6.10;0.70;;;8.10;99.90;;;;;;5067593;28;20226;-70
2022/02/11 14:51:58;;;;;;;3.13;0.70;;;8.20;99.90;;;;;;5057776;28;20211;-78
2022/02/11 14:54:26;;;;;;;2.03;0.53;;;8.30;99.90;;;;;;5060813;28;20196;-72
2022/02/11 14:56:55;;;;;;;7.10;0.80;;;8.50;99.90;;;;;;5074550;28;20229;-70
2022/02/11 14:59:24;;;;;;;3.93;0.73;;;8.60;99.90;;;;;;5073945;28;20234;-68
2022/02/11 15:01:52;;;;;;;7.73;0.80;;;8.70;99.90;;;;;;5061426;28;20223;-68
2022/02/11 15:04:18;;;;;;;7.03;0.80;;;8.80;99.90;;;;;;5059462;28;20203;-70
2022/02/11 15:06:47;;;;;;;5.47;0.50;;;8.70;99.90;;;;;;5073627;28;20234;-71
2022/02/11 15:09:14;;;;;;;2.07;0.60;;;8.80;99.90;;;;;;5074431;28;20830;-68
2022/02/11 15:11:41;;;;;;;4.27;0.70;;;8.70;99.90;;;;;;5068954;28;20195;-72
2022/02/11 15:14:08;;;;;;;6.10;0.60;;;8.70;99.90;;;;;;5073985;28;20211;-68
2022/02/11 15:16:36;;;;;;;4.57;1.00;;;8.70;99.90;;;;;;5075248;28;20203;-71
2022/02/11 15:19:04;;;;;;;7.43;0.77;;;8.50;99.90;;;;;;5074888;28;20230;-71
2022/02/11 15:21:31;;;;;;;5.23;0.63;;;8.20;99.90;;;;;;5063733;28;20269;-67
2022/02/11 15:23:58;;;;;;;4.73;1.07;;;8.10;99.90;;;;;;5072855;28;20253;-70
2022/02/11 15:26:25;;;;;;;6.13;0.63;;;8.10;99.90;;;;;;5073589;28;20203;-69
2022/02/11 15:28:52;;;;;;;6.23;0.93;;;8.00;99.90;;;;;;5073764;28;20223;-69
2022/02/11 15:31:19;;;;;;;9.13;1.10;;;7.90;99.90;;;;;;5065480;28;20200;-67
2022/02/11 15:33:47;;;;;;;5.60;0.83;;;7.90;99.90;;;;;;5073426;28;20215;-70
2022/02/11 15:36:15;;;;;;;3.40;0.80;;;7.80;99.90;;;;;;5073991;28;20233;-71
2022/02/11 15:38:42;;;;;;;4.10;0.80;;;7.80;99.90;;;;;;5073679;28;20231;-70
2022/02/11 15:41:09;;;;;;;6.93;0.90;;;7.80;99.90;;;;;;5067009;28;20204;-70
2022/02/11 15:43:36;;;;;;;9.03;1.20;;;7.80;99.90;;;;;;5069528;28;20199;-70
2022/02/11 15:46:03;;;;;;;6.63;0.70;;;7.90;99.90;;;;;;5053403;28;20689;-72
2022/02/11 15:48:30;;;;;;;11.53;0.90;;;7.80;99.90;;;;;;5053519;28;20251;-67
2022/02/11 15:51:00;;;;;;;4.13;0.60;;;7.70;99.90;;;;;;5052957;28;20200;-67
2022/02/11 15:53:27;;;;;;;5.33;0.90;;;7.70;99.90;;;;;;5069134;28;20217;-66
2022/02/11 15:55:53;;;;;;;6.33;0.97;;;7.60;99.90;;;;;;5072913;28;20237;-70
2022/02/11 15:58:20;;;;;;;3.03;0.77;;;7.70;99.90;;;;;;5073571;28;20227;-70
2022/02/11 16:00:47;;;;;;;9.13;1.40;;;7.70;99.90;;;;;;5068985;28;20658;-67
2022/02/11 16:03:14;;;;;;;1.77;0.70;;;7.80;99.90;;;;;;5068392;28;20215;-68
2022/02/11 16:05:41;;;;;;;3.93;1.57;;;7.90;99.90;;;;;;5073674;28;20203;-71
2022/02/11 16:08:09;;;;;;;5.70;0.77;;;7.70;99.90;;;;;;5072512;28;20698;-68
2022/02/11 16:10:36;;;;;;;7.43;0.93;;;7.50;99.90;;;;;;5070940;28;20213;-70
2022/02/11 16:13:03;;;;;;;4.70;0.93;;;7.50;99.90;;;;;;5066044;28;20683;-70
2022/02/11 16:15:30;;;;;;;5.00;1.60;;;7.50;99.90;;;;;;5069536;28;20226;-71
2022/02/11 16:18:03;;;;;;;6.20;2.47;;;7.40;99.90;;;;;;5073095;28;20219;-72
2022/02/11 16:20:33;;;;;;;4.43;1.17;;;7.30;99.90;;;;;;5072651;28;20209;-72
2022/02/11 16:23:00;;;;;;;6.83;2.23;;;7.30;99.90;;;;;;5054286;28;20203;-70
2022/02/11 16:25:28;;;;;;;10.07;1.80;;;7.30;99.90;;;;;;5054281;28;20208;-71